createdAt,value
2022-11-06T00:01:44.239Z,18.5
2022-11-06T00:07:35.103Z,20
2022-11-06T00:13:26.250Z,20.9
2022-11-06T00:19:18.286Z,21.9
2022-11-06T00:25:10.239Z,19.7
2022-11-06T00:31:02.753Z,19.3
2022-11-06T00:36:56.234Z,21.9
2022-11-06T00:42:46.518Z,20.6
2022-11-06T00:48:37.201Z,20.5
2022-11-06T00:54:28.328Z,22.2
2022-11-06T01:00:19.541Z,16.2
2022-11-06T01:06:10.675Z,16.8
2022-11-06T01:12:18.014Z,16.8
2022-11-06T01:18:08.855Z,18.4
2022-11-06T01:24:01.731Z,13.1
2022-11-06T01:29:51.247Z,14.4
2022-11-06T01:35:43.749Z,16.7
2022-11-06T01:41:37.187Z,14.7
2022-11-06T01:47:29.461Z,16.4
2022-11-06T01:53:23.242Z,15.9
2022-11-06T01:59:14.181Z,12.3
2022-11-06T02:05:07.260Z,12.4
2022-11-06T02:10:58.978Z,16
2022-11-06T02:16:50.419Z,14.8
2022-11-06T02:22:40.944Z,13.6
2022-11-06T02:28:31.689Z,12.2
2022-11-06T02:34:22.264Z,12.5
2022-11-06T02:40:13.622Z,11.3
2022-11-06T02:46:03.695Z,14.1
2022-11-06T02:51:53.924Z,13.3
2022-11-06T02:57:45.353Z,12.2
2022-11-06T03:03:38.431Z,13.9
2022-11-06T03:09:29.578Z,12.8
2022-11-06T03:15:20.448Z,13.2
2022-11-06T03:21:12.723Z,12.9
2022-11-06T03:27:04.562Z,14.8
2022-11-06T03:32:56.545Z,13.6
2022-11-06T03:38:47.560Z,13.3
2022-11-06T03:44:42.820Z,13.9
2022-11-06T03:50:34.099Z,12.3
2022-11-06T03:56:24.488Z,14.3
2022-11-06T04:02:16.133Z,12.5
2022-11-06T04:08:09.198Z,10.1
2022-11-06T04:14:01.235Z,10
2022-11-06T04:19:52.171Z,10.3
2022-11-06T04:25:45.582Z,10.3
2022-11-06T04:31:36.772Z,11.1
2022-11-06T04:37:27.400Z,10.1
2022-11-06T04:43:18.684Z,10.7
2022-11-06T04:49:09.734Z,9.3
2022-11-06T04:54:58.497Z,7.3
2022-11-06T05:00:49.032Z,8.9
2022-11-06T05:06:40.308Z,8.8
2022-11-06T05:12:31.887Z,12.8
2022-11-06T05:18:26.750Z,11.1
2022-11-06T05:24:19.573Z,8.8
2022-11-06T05:30:10.541Z,13.3
2022-11-06T05:36:02.459Z,8.5
2022-11-06T05:41:53.735Z,10.7
2022-11-06T05:47:45.785Z,11
2022-11-06T05:53:40.778Z,13.7
2022-11-06T05:59:32.226Z,11.4
2022-11-06T06:05:22.801Z,11.9
2022-11-06T06:11:15.423Z,14.3
2022-11-06T06:17:06.909Z,13
2022-11-06T06:22:58.990Z,12.9
2022-11-06T06:28:50.567Z,11.5
2022-11-06T06:35:09.890Z,15.4
2022-11-06T06:41:36.390Z,11.7
2022-11-06T06:47:55.012Z,13.5
2022-11-06T06:54:19.150Z,13
2022-11-06T07:00:12.343Z,11.6
2022-11-06T07:06:08.752Z,16.3
2022-11-06T07:18:10.620Z,14.5
2022-11-06T07:24:17.634Z,13.1
2022-11-06T07:30:27.570Z,15.7
2022-11-06T07:36:34.839Z,14.5
2022-11-06T07:42:35.159Z,16.6
2022-11-06T07:48:39.727Z,19.3
2022-11-06T07:54:43.068Z,14.3
2022-11-06T08:01:18.107Z,15.6
2022-11-06T08:07:41.490Z,13.5
2022-11-06T08:13:50.588Z,17.8
2022-11-06T08:20:22.201Z,14.9
2022-11-06T08:33:05.432Z,17.5
2022-11-06T08:39:33.639Z,16.4
2022-11-06T08:45:38.956Z,15.4
2022-11-06T08:57:43.720Z,12.9
2022-11-06T09:03:46.881Z,16.7
2022-11-06T09:09:40.490Z,17.9
2022-11-06T09:15:36.145Z,13.7
2022-11-06T09:21:49.099Z,20.7
2022-11-06T09:27:43.880Z,14
2022-11-06T09:33:41.224Z,12.7
2022-11-06T09:39:42.245Z,14.7
2022-11-06T09:45:49.848Z,14.9
2022-11-06T09:52:12.130Z,14.5
2022-11-06T09:58:06.667Z,12
2022-11-06T10:03:59.716Z,13.3
2022-11-06T10:09:53.668Z,13.1
2022-11-06T10:15:45.553Z,11.6
2022-11-06T10:21:35.682Z,12.1
2022-11-06T10:27:27.271Z,13
2022-11-06T10:33:25.843Z,12.5
2022-11-06T10:39:56.233Z,10
2022-11-06T10:46:06.197Z,12.8
2022-11-06T10:51:56.514Z,10.3
2022-11-06T10:57:47.243Z,11.9
2022-11-06T11:04:47.319Z,11.1
2022-11-06T11:10:37.136Z,9.2
2022-11-06T11:16:28.306Z,10.6
2022-11-06T11:22:19.528Z,9.3
2022-11-06T11:28:10.004Z,8.7
2022-11-06T11:34:02.831Z,8
2022-11-06T11:39:53.601Z,5.7
2022-11-06T11:45:44.849Z,6.9
2022-11-06T11:51:34.119Z,8.4
2022-11-06T11:57:24.864Z,8.4
2022-11-06T12:03:15.283Z,8.1
2022-11-06T12:09:07.512Z,6.4
2022-11-06T12:14:58.953Z,7.2
2022-11-06T12:21:08.393Z,5.3
2022-11-06T12:27:00.248Z,8
2022-11-06T12:32:51.289Z,5.2
2022-11-06T12:38:53.288Z,5.2
2022-11-06T12:51:03.454Z,5.1
2022-11-06T12:56:54.753Z,5.5
2022-11-06T13:02:48.450Z,7.6
2022-11-06T13:09:02.407Z,3.7
2022-11-06T13:14:53.030Z,5.1
2022-11-06T13:20:50.732Z,2.5
2022-11-06T13:26:44.182Z,5.8
2022-11-06T13:32:34.717Z,5.5
2022-11-06T13:38:25.055Z,5.7
2022-11-06T13:44:35.120Z,5.7
2022-11-06T13:50:27.411Z,4.4
2022-11-06T13:56:20.416Z,3.5
2022-11-06T14:02:13.132Z,5.2
2022-11-06T14:08:05.431Z,3.2
2022-11-06T14:13:56.149Z,2.9
2022-11-06T14:19:58.593Z,4.8
2022-11-06T14:25:49.228Z,4.6
2022-11-06T14:31:39.965Z,4.8
2022-11-06T14:37:35.424Z,3.7
2022-11-06T14:43:24.524Z,5.3
2022-11-06T14:49:14.406Z,4.6
2022-11-06T14:55:09.299Z,5.4
2022-11-06T15:01:01.990Z,4.8
2022-11-06T15:06:52.173Z,5.4
2022-11-06T15:12:42.995Z,4.7
2022-11-06T15:18:33.379Z,4.8
2022-11-06T15:24:24.588Z,4.5
2022-11-06T15:30:14.685Z,9
2022-11-06T15:36:06.602Z,5.2
2022-11-06T15:41:57.431Z,6.9
2022-11-06T15:47:55.724Z,6.5
2022-11-06T15:53:57.406Z,7.6
2022-11-06T15:59:48.537Z,6.8
2022-11-06T16:05:50.619Z,8
2022-11-06T16:11:39.866Z,8.5
2022-11-06T16:17:30.964Z,8.5
2022-11-06T16:23:34.809Z,9.1
2022-11-06T16:29:55.045Z,8.5
2022-11-06T16:35:58.538Z,7.9
2022-11-06T16:42:03.883Z,7.8
2022-11-06T16:53:56.244Z,7.9
2022-11-06T16:59:49.853Z,9.5
2022-11-06T17:05:38.806Z,10.9
2022-11-06T17:11:30.165Z,13.2
2022-11-06T17:17:39.843Z,12.7
2022-11-06T17:36:32.591Z,13.4
2022-11-06T17:42:25.887Z,10.5
2022-11-06T17:48:19.382Z,12.1
2022-11-06T17:54:11.876Z,10.4
2022-11-06T18:00:02.567Z,12.8
2022-11-06T18:06:03.973Z,9.8
2022-11-06T18:11:56.683Z,12
2022-11-06T18:17:50.948Z,14.1
2022-11-06T18:23:42.529Z,12.9
2022-11-06T18:29:34.733Z,13.7
2022-11-06T18:35:24.266Z,11
2022-11-06T18:41:21.511Z,9.7
2022-11-06T18:47:17.094Z,10
2022-11-06T18:53:06.550Z,10
2022-11-06T18:58:56.852Z,10.2
2022-11-06T19:04:45.665Z,11.2
2022-11-06T19:10:49.006Z,9.2
2022-11-06T19:23:39.202Z,9.9
2022-11-06T19:36:26.041Z,8.1
2022-11-06T20:03:18.978Z,6
2022-11-06T20:09:34.957Z,6.9
2022-11-06T20:34:35.543Z,7.5
2022-11-06T21:00:29.501Z,6.4
2022-11-06T21:08:11.893Z,9.3
2022-11-06T21:14:40.104Z,6.7
2022-11-06T21:21:14.564Z,7.8
2022-11-06T21:27:40.388Z,5.8
2022-11-06T21:34:05.007Z,7.5
2022-11-06T21:40:08.797Z,7.6
2022-11-06T21:46:08.886Z,6.4
2022-11-06T21:52:07.477Z,6.2
2022-11-06T21:58:14.858Z,7
2022-11-06T22:04:17.413Z,5.3
2022-11-06T22:10:13.156Z,5.4
2022-11-06T22:16:12.370Z,5.7
2022-11-06T22:22:07.160Z,7.2
2022-11-06T22:27:58.599Z,5.4
2022-11-06T22:33:58.210Z,6.6
2022-11-06T22:46:06.344Z,4.6
2022-11-06T22:51:57.771Z,5.4
2022-11-06T22:57:49.160Z,5.7
2022-11-06T23:03:41.420Z,3.9
2022-11-06T23:09:33.607Z,6
2022-11-06T23:15:25.987Z,5.5
2022-11-06T23:21:17.290Z,5.3
2022-11-06T23:27:09.198Z,6.7
2022-11-06T23:33:01.306Z,4.6
2022-11-06T23:38:55.479Z,7
2022-11-06T23:44:48.378Z,5.4
2022-11-06T23:50:41.663Z,4.7
2022-11-06T23:56:35.021Z,3.6
